Time;durP1;ratioP1;P1;durP2;ratioP2;P2;SDS_P1;SDS_P2;PMS_P1;PMS_P2;Temp;Humidity;BMP_temperature;BMP_pressure;BME280_temperature;BME280_humidity;BME280_pressure;Samples;Min_cycle;Max_cycle;Signal;HPM_P1;HPM_P2
2021/06/30 00:00:25;;;;;;;19.38;17.38;;;20.00;99.90;;;;;;2088722;28;20028;-74
2021/06/30 00:01:26;;;;;;;18.48;16.35;;;19.90;99.90;;;;;;2088863;28;20021;-73
2021/06/30 00:02:26;;;;;;;18.67;16.55;;;19.90;99.90;;;;;;2089419;28;20408;-73
2021/06/30 00:03:27;;;;;;;18.67;16.75;;;19.90;99.90;;;;;;2089092;28;20480;-73
2021/06/30 00:04:28;;;;;;;19.38;16.38;;;19.90;99.90;;;;;;2088974;28;20070;-73
2021/06/30 00:05:29;;;;;;;18.40;16.50;;;19.90;99.90;;;;;;2089293;28;20032;-74
2021/06/30 00:06:30;;;;;;;17.27;15.43;;;19.90;99.90;;;;;;2088739;28;20060;-73
2021/06/30 00:07:32;;;;;;;17.25;15.45;;;19.80;99.90;;;;;;2088526;28;20025;-73
2021/06/30 00:08:33;;;;;;;17.77;15.55;;;19.90;99.90;;;;;;2088227;28;20037;-72
2021/06/30 00:09:34;;;;;;;18.35;14.73;;;19.80;99.90;;;;;;2087887;28;20061;-74
2021/06/30 00:10:35;;;;;;;15.15;13.70;;;19.80;99.90;;;;;;2088464;28;20029;-73
2021/06/30 00:11:35;;;;;;;17.55;14.70;;;19.80;99.90;;;;;;2088690;28;20030;-74
2021/06/30 00:12:36;;;;;;;15.88;14.00;;;19.80;99.90;;;;;;2088570;28;20436;-73
2021/06/30 00:13:37;;;;;;;16.15;13.98;;;19.80;99.90;;;;;;2088844;28;20029;-74
2021/06/30 00:14:38;;;;;;;14.25;12.85;;;19.80;99.90;;;;;;2089582;28;20048;-73
2021/06/30 00:15:41;;;;;;;14.75;13.25;;;19.80;99.90;;;;;;2089806;28;20032;-73
2021/06/30 00:16:43;;;;;;;14.68;13.18;;;19.80;99.90;;;;;;2090284;28;20017;-72
2021/06/30 00:17:44;;;;;;;16.50;12.40;;;19.80;99.90;;;;;;2089715;28;20040;-73
2021/06/30 00:18:45;;;;;;;12.65;11.43;;;19.80;99.90;;;;;;2088832;28;20086;-75
2021/06/30 00:19:46;;;;;;;10.60;9.43;;;19.80;99.90;;;;;;2087514;28;20067;-72
2021/06/30 00:20:47;;;;;;;9.68;7.97;;;19.80;99.90;;;;;;2088907;28;20100;-72
2021/06/30 00:21:48;;;;;;;6.55;5.95;;;19.70;99.90;;;;;;2088852;28;20104;-75
2021/06/30 00:22:48;;;;;;;8.13;5.65;;;19.60;99.90;;;;;;2088820;28;20033;-74
2021/06/30 00:23:49;;;;;;;8.85;5.70;;;19.60;99.90;;;;;;2088177;28;20048;-72
2021/06/30 00:24:49;;;;;;;6.18;5.13;;;19.50;99.90;;;;;;2071874;28;20026;-72
2021/06/30 00:25:50;;;;;;;5.60;4.90;;;19.50;99.90;;;;;;2080181;28;20040;-73
2021/06/30 00:26:51;;;;;;;7.97;4.53;;;19.40;99.90;;;;;;2088984;28;20083;-73
2021/06/30 00:27:52;;;;;;;8.90;4.97;;;19.40;99.90;;;;;;2089082;28;20037;-72
2021/06/30 00:28:53;;;;;;;6.50;4.60;;;19.30;99.90;;;;;;2087564;28;20037;-72
2021/06/30 00:29:53;;;;;;;6.68;4.47;;;19.30;99.90;;;;;;2088456;28;20025;-72
2021/06/30 00:30:54;;;;;;;7.05;4.47;;;19.20;99.90;;;;;;2089137;28;20025;-73
2021/06/30 00:31:55;;;;;;;6.97;4.30;;;19.20;99.90;;;;;;2088973;28;20111;-73
2021/06/30 00:32:56;;;;;;;6.20;3.95;;;19.20;99.90;;;;;;2090360;28;20037;-73
2021/06/30 00:34:02;;;;;;;5.57;4.22;;;19.20;99.90;;;;;;2090728;28;20097;-73
2021/06/30 00:35:03;;;;;;;5.82;4.20;;;19.20;99.90;;;;;;2091225;28;20028;-73
2021/06/30 00:36:04;;;;;;;5.85;4.40;;;19.10;99.90;;;;;;2090647;28;20033;-73
2021/06/30 00:37:05;;;;;;;5.00;4.20;;;19.10;99.90;;;;;;2089962;28;20039;-72
2021/06/30 00:38:05;;;;;;;6.28;4.20;;;19.10;99.90;;;;;;2089128;28;20415;-72
2021/06/30 00:39:06;;;;;;;4.80;4.00;;;19.10;99.90;;;;;;2088010;28;20028;-72
2021/06/30 00:40:09;;;;;;;5.82;4.10;;;19.10;99.90;;;;;;2088963;28;20025;-73
2021/06/30 00:41:09;;;;;;;4.85;4.00;;;19.10;99.90;;;;;;2088275;28;20029;-72
2021/06/30 00:42:10;;;;;;;5.03;3.60;;;19.10;99.90;;;;;;2079846;28;20374;-73
2021/06/30 00:43:11;;;;;;;6.07;3.72;;;19.10;99.90;;;;;;2088281;28;20028;-73
2021/06/30 00:44:12;;;;;;;5.82;3.95;;;19.10;99.90;;;;;;2088186;28;20060;-72
2021/06/30 00:45:18;;;;;;;4.57;3.67;;;19.10;99.90;;;;;;2088437;28;20591;-74
2021/06/30 00:46:25;;;;;;;5.22;3.80;;;19.00;99.90;;;;;;2088801;28;20032;-73
2021/06/30 00:47:26;;;;;;;5.10;4.32;;;19.00;99.90;;;;;;2088676;28;20071;-74
2021/06/30 00:48:26;;;;;;;4.30;3.90;;;19.00;99.90;;;;;;2088510;28;20036;-73
2021/06/30 00:49:27;;;;;;;4.45;4.05;;;19.00;99.90;;;;;;2088112;28;20540;-72
2021/06/30 00:50:27;;;;;;;4.60;3.83;;;19.00;99.90;;;;;;2088878;28;20516;-73
2021/06/30 00:51:28;;;;;;;4.68;4.00;;;19.00;99.90;;;;;;2088731;28;20492;-73
2021/06/30 00:52:29;;;;;;;5.25;4.07;;;19.10;99.90;;;;;;2088623;28;20036;-72
2021/06/30 00:53:29;;;;;;;4.60;3.92;;;19.10;99.90;;;;;;2088694;28;20028;-73
2021/06/30 00:54:30;;;;;;;4.50;3.70;;;19.00;99.90;;;;;;2088827;28;20040;-73
2021/06/30 00:55:31;;;;;;;4.40;4.00;;;19.00;99.90;;;;;;2088807;28;20032;-73
2021/06/30 00:56:32;;;;;;;4.45;4.03;;;19.00;99.90;;;;;;2088727;28;20029;-73
2021/06/30 00:57:32;;;;;;;5.30;4.03;;;19.00;99.90;;;;;;2088092;28;20061;-73
2021/06/30 00:58:33;;;;;;;4.63;3.85;;;19.00;99.90;;;;;;2087884;28;20075;-73
2021/06/30 00:59:36;;;;;;;4.45;3.70;;;19.00;99.90;;;;;;2088206;28;20025;-73
2021/06/30 01:00:37;;;;;;;4.45;3.88;;;19.00;99.90;;;;;;2088675;28;20029;-73
2021/06/30 01:01:38;;;;;;;4.72;3.50;;;19.00;99.90;;;;;;2088764;28;20393;-72
2021/06/30 01:02:38;;;;;;;5.25;3.70;;;18.90;99.90;;;;;;2088144;28;20025;-72
2021/06/30 01:03:39;;;;;;;3.80;3.50;;;18.90;99.90;;;;;;2088118;28;20044;-73
2021/06/30 01:04:40;;;;;;;6.32;3.75;;;18.90;99.90;;;;;;2088455;28;20182;-73
2021/06/30 01:05:40;;;;;;;3.63;3.33;;;18.90;99.90;;;;;;2088707;28;20064;-73
2021/06/30 01:06:41;;;;;;;4.13;3.72;;;18.90;99.90;;;;;;2088874;28;20025;-72
2021/06/30 01:07:42;;;;;;;5.55;3.50;;;18.90;99.90;;;;;;2088819;28;20021;-73
2021/06/30 01:08:44;;;;;;;4.30;3.40;;;18.90;99.90;;;;;;2088020;28;20036;-73
2021/06/30 01:09:44;;;;;;;3.95;3.30;;;18.80;99.90;;;;;;2088539;28;20472;-72
2021/06/30 01:10:45;;;;;;;4.50;3.63;;;18.80;99.90;;;;;;2088712;28;20082;-73
2021/06/30 01:11:46;;;;;;;3.78;3.30;;;18.80;99.90;;;;;;2088686;28;20068;-74
2021/06/30 01:12:46;;;;;;;6.18;3.40;;;18.80;99.90;;;;;;2088566;28;20033;-72
2021/06/30 01:13:47;;;;;;;6.65;3.45;;;18.80;99.90;;;;;;2088778;28;20025;-72
2021/06/30 01:14:48;;;;;;;3.72;3.30;;;18.80;99.90;;;;;;2088089;28;20037;-73
2021/06/30 01:15:55;;;;;;;3.97;3.20;;;18.80;99.90;;;;;;2088115;28;20135;-74
2021/06/30 01:16:56;;;;;;;5.80;3.30;;;18.80;99.90;;;;;;2088637;28;20029;-75
2021/06/30 01:17:57;;;;;;;5.90;3.67;;;18.80;99.90;;;;;;2088721;28;20051;-74
2021/06/30 01:18:58;;;;;;;6.10;3.70;;;18.80;99.90;;;;;;2085935;28;20025;-74
2021/06/30 01:19:58;;;;;;;4.03;3.28;;;18.80;99.90;;;;;;2088590;28;20037;-74
2021/06/30 01:21:00;;;;;;;4.22;3.00;;;18.70;99.90;;;;;;2087898;28;20622;-74
2021/06/30 01:22:01;;;;;;;6.22;3.17;;;18.70;99.90;;;;;;2088323;28;20085;-74
2021/06/30 01:23:04;;;;;;;3.50;3.20;;;18.70;99.90;;;;;;2088679;28;20541;-74
2021/06/30 01:24:05;;;;;;;3.85;3.20;;;18.70;99.90;;;;;;2088545;28;20119;-72
2021/06/30 01:25:06;;;;;;;3.50;3.20;;;18.70;99.90;;;;;;2088696;28;20033;-72
2021/06/30 01:26:07;;;;;;;4.13;3.40;;;18.70;99.90;;;;;;2088707;28;20036;-73
2021/06/30 01:27:07;;;;;;;3.97;3.17;;;18.70;99.90;;;;;;2088054;28;20037;-73
2021/06/30 01:28:08;;;;;;;4.90;3.15;;;18.60;99.90;;;;;;2079960;28;20029;-73
2021/06/30 01:29:09;;;;;;;4.28;3.40;;;18.60;99.90;;;;;;2087302;28;20029;-72
2021/06/30 01:30:10;;;;;;;3.90;3.47;;;18.60;99.90;;;;;;2088484;28;20036;-73
2021/06/30 01:31:13;;;;;;;5.00;2.92;;;18.60;99.90;;;;;;2088750;28;20032;-73
2021/06/30 01:32:14;;;;;;;5.72;3.30;;;18.60;99.90;;;;;;2088878;28;20069;-73
2021/06/30 01:33:15;;;;;;;4.75;3.00;;;18.60;99.90;;;;;;2088803;28;20025;-73
2021/06/30 01:34:16;;;;;;;4.50;3.00;;;18.50;99.90;;;;;;2088775;28;20035;-73
2021/06/30 01:35:22;;;;;;;5.45;3.20;;;18.50;99.90;;;;;;2088887;28;20021;-73
2021/06/30 01:36:22;;;;;;;5.53;3.50;;;18.40;99.90;;;;;;2088520;28;20025;-73
2021/06/30 01:37:23;;;;;;;5.13;3.25;;;18.40;99.90;;;;;;2089010;28;20067;-73
2021/06/30 01:38:27;;;;;;;3.97;3.10;;;18.40;99.90;;;;;;2088565;28;20021;-73
2021/06/30 01:39:28;;;;;;;5.03;3.28;;;18.40;99.90;;;;;;2089540;28;20021;-73
2021/06/30 01:40:29;;;;;;;3.88;3.30;;;18.30;99.90;;;;;;2098029;28;20043;-73
2021/06/30 01:41:29;;;;;;;3.22;2.92;;;18.30;99.90;;;;;;2090269;28;20021;-72
2021/06/30 01:42:30;;;;;;;4.30;3.20;;;18.30;99.90;;;;;;2089997;28;20045;-73
2021/06/30 01:43:30;;;;;;;6.35;3.08;;;18.30;99.90;;;;;;2089785;28;20473;-72
2021/06/30 01:44:31;;;;;;;3.75;3.00;;;18.20;99.90;;;;;;2089595;28;20093;-75
2021/06/30 01:45:32;;;;;;;5.70;3.35;;;18.20;99.90;;;;;;2088428;28;20492;-73
2021/06/30 01:46:33;;;;;;;4.93;3.10;;;18.20;99.90;;;;;;2088964;28;20078;-73
2021/06/30 01:47:33;;;;;;;4.45;3.10;;;18.20;99.90;;;;;;2088949;28;20036;-73
2021/06/30 01:48:34;;;;;;;4.95;3.30;;;18.20;99.90;;;;;;2088496;28;20551;-73
2021/06/30 01:49:40;;;;;;;3.58;2.97;;;18.20;99.90;;;;;;2090145;28;20031;-72
2021/06/30 01:50:41;;;;;;;5.68;3.20;;;18.20;99.90;;;;;;2088691;28;20029;-74
2021/06/30 01:51:41;;;;;;;3.85;3.10;;;18.10;99.90;;;;;;2088734;28;20532;-72
2021/06/30 01:52:43;;;;;;;3.78;3.30;;;18.10;99.90;;;;;;2088869;28;20041;-73
2021/06/30 01:53:44;;;;;;;4.18;3.10;;;18.10;99.90;;;;;;2088337;28;20041;-73
2021/06/30 01:54:44;;;;;;;4.32;3.20;;;18.20;99.90;;;;;;2088480;28;20079;-73
2021/06/30 01:55:45;;;;;;;3.60;3.30;;;18.10;99.90;;;;;;2088155;28;20116;-73
2021/06/30 01:56:49;;;;;;;4.20;3.10;;;18.10;99.90;;;;;;2088162;28;20035;-73
2021/06/30 01:57:51;;;;;;;3.58;3.20;;;18.10;99.90;;;;;;2088690;28;20494;-73
2021/06/30 01:59:12;;;;;;;9.70;3.40;;;18.10;99.90;;;;;;2095690;28;20031;-73
2021/06/30 02:00:16;;;;;;;3.30;3.00;;;18.10;99.90;;;;;;2088424;28;20040;-74
2021/06/30 02:01:16;;;;;;;4.47;3.33;;;18.20;99.90;;;;;;2088373;28;20094;-72
2021/06/30 02:02:17;;;;;;;5.05;3.20;;;18.10;99.90;;;;;;2088859;28;20021;-73
2021/06/30 02:03:18;;;;;;;5.38;3.20;;;18.10;99.90;;;;;;2088455;28;20100;-72
2021/06/30 02:04:19;;;;;;;4.68;3.10;;;18.10;99.90;;;;;;2088542;28;20508;-73
2021/06/30 02:05:21;;;;;;;3.88;3.08;;;18.10;99.90;;;;;;2088124;28;20029;-73
2021/06/30 02:06:26;;;;;;;4.18;3.15;;;18.00;99.90;;;;;;2088174;28;20032;-73
2021/06/30 02:07:27;;;;;;;4.03;3.05;;;18.10;99.90;;;;;;2095766;28;20041;-73
2021/06/30 02:08:27;;;;;;;4.93;3.20;;;18.10;99.90;;;;;;2088235;28;20484;-73
2021/06/30 02:09:28;;;;;;;4.50;3.08;;;18.00;99.90;;;;;;2087957;28;20396;-73
2021/06/30 02:10:29;;;;;;;3.92;3.50;;;18.10;99.90;;;;;;2087951;28;20025;-72
2021/06/30 02:11:29;;;;;;;3.97;3.35;;;18.10;99.90;;;;;;2088006;28;20048;-72
2021/06/30 02:12:30;;;;;;;5.57;3.65;;;18.00;99.90;;;;;;2088702;28;20082;-72
2021/06/30 02:13:31;;;;;;;4.90;3.47;;;18.10;99.90;;;;;;2088647;28;20032;-73
2021/06/30 02:14:31;;;;;;;5.22;3.50;;;18.10;99.90;;;;;;2089035;28;20032;-73
2021/06/30 02:15:34;;;;;;;5.20;3.50;;;18.00;99.90;;;;;;2088828;28;20039;-73
2021/06/30 02:16:35;;;;;;;6.05;3.50;;;18.00;99.90;;;;;;2088957;28;20526;-73
2021/06/30 02:17:36;;;;;;;5.57;3.35;;;18.00;99.90;;;;;;2090861;28;20079;-72
2021/06/30 02:18:36;;;;;;;3.50;3.20;;;18.00;99.90;;;;;;2090965;28;20514;-72
2021/06/30 02:19:37;;;;;;;3.70;3.30;;;18.00;99.90;;;;;;2092338;28;20037;-74
2021/06/30 02:20:37;;;;;;;4.82;3.22;;;18.00;99.90;;;;;;2090375;28;20032;-73
2021/06/30 02:21:38;;;;;;;4.78;3.55;;;18.00;99.90;;;;;;2090145;28;20029;-72
2021/06/30 02:22:39;;;;;;;6.15;3.50;;;18.00;99.90;;;;;;2089997;28;20029;-73
2021/06/30 02:23:41;;;;;;;5.18;3.58;;;18.00;99.90;;;;;;2089850;28;20120;-73
2021/06/30 02:24:42;;;;;;;4.10;3.00;;;17.90;99.90;;;;;;2089817;28;20456;-72
2021/06/30 02:25:43;;;;;;;6.65;3.10;;;17.90;99.90;;;;;;2089846;28;20123;-73
2021/06/30 02:26:44;;;;;;;5.90;3.60;;;18.00;99.90;;;;;;2089547;28;20033;-73
2021/06/30 02:27:45;;;;;;;4.05;3.17;;;17.90;99.90;;;;;;2089743;28;20495;-73
2021/06/30 02:28:46;;;;;;;4.70;3.33;;;18.00;99.90;;;;;;2089142;28;20033;-73
2021/06/30 02:29:46;;;;;;;4.55;3.40;;;17.90;99.90;;;;;;2089846;28;20025;-74
2021/06/30 02:30:47;;;;;;;3.58;2.85;;;18.00;99.90;;;;;;2089880;28;20024;-73
2021/06/30 02:31:48;;;;;;;4.32;3.20;;;17.90;99.90;;;;;;2089902;28;20029;-73
2021/06/30 02:32:49;;;;;;;5.75;3.42;;;18.00;99.90;;;;;;2089797;28;20039;-73
2021/06/30 02:33:50;;;;;;;3.55;3.10;;;18.00;99.90;;;;;;2089255;28;20033;-73
2021/06/30 02:34:51;;;;;;;5.95;3.40;;;17.90;99.90;;;;;;2089318;28;20040;-73
2021/06/30 02:35:52;;;;;;;6.10;3.10;;;18.00;99.90;;;;;;2089259;28;20480;-73
2021/06/30 02:36:52;;;;;;;4.85;3.40;;;17.90;99.90;;;;;;2089249;28;20031;-72
2021/06/30 02:37:55;;;;;;;5.07;3.42;;;17.90;99.90;;;;;;2097573;28;20021;-73
2021/06/30 02:38:57;;;;;;;4.85;3.22;;;18.00;99.90;;;;;;2089023;28;20024;-74
2021/06/30 02:39:58;;;;;;;6.07;3.50;;;18.00;99.90;;;;;;2088971;28;20370;-72
2021/06/30 02:40:58;;;;;;;3.90;3.50;;;17.90;99.90;;;;;;2089180;28;20031;-72
2021/06/30 02:41:59;;;;;;;3.30;3.00;;;17.90;99.90;;;;;;2089752;28;20029;-73
2021/06/30 02:43:01;;;;;;;4.53;3.55;;;17.90;99.90;;;;;;2089188;28;20042;-73
2021/06/30 02:44:01;;;;;;;4.60;3.20;;;17.90;99.90;;;;;;2088983;28;20035;-71
2021/06/30 02:45:05;;;;;;;3.75;3.25;;;18.00;99.90;;;;;;2089875;28;20035;-73
2021/06/30 02:46:06;;;;;;;4.28;3.17;;;17.90;99.90;;;;;;2089866;28;20025;-72
2021/06/30 02:47:07;;;;;;;6.22;3.20;;;17.90;99.90;;;;;;2089783;28;20037;-74
2021/06/30 02:48:07;;;;;;;4.80;3.22;;;17.90;99.90;;;;;;2089653;28;20546;-73
2021/06/30 02:49:08;;;;;;;4.32;2.90;;;17.80;99.90;;;;;;2090240;28;20028;-72
2021/06/30 02:50:10;;;;;;;3.85;3.20;;;17.80;99.90;;;;;;2089467;28;20036;-73
2021/06/30 02:51:10;;;;;;;3.20;2.90;;;17.80;99.90;;;;;;2090145;28;20039;-72
2021/06/30 02:52:11;;;;;;;4.90;3.20;;;17.80;99.90;;;;;;2089290;28;20068;-73
2021/06/30 02:53:12;;;;;;;3.85;3.28;;;17.80;99.90;;;;;;2089866;28;20037;-72
2021/06/30 02:54:13;;;;;;;4.03;3.35;;;17.80;99.90;;;;;;2097559;28;20080;-72
2021/06/30 02:55:15;;;;;;;5.28;3.30;;;17.80;99.90;;;;;;2089609;28;20469;-74
2021/06/30 02:56:15;;;;;;;4.85;3.40;;;17.80;99.90;;;;;;2089488;28;20132;-73
2021/06/30 02:57:16;;;;;;;4.18;3.30;;;17.80;99.90;;;;;;2089547;28;20384;-72
2021/06/30 02:58:16;;;;;;;3.95;3.30;;;17.80;99.90;;;;;;2088935;28;20075;-72
2021/06/30 02:59:17;;;;;;;4.35;3.30;;;17.80;99.90;;;;;;2088227;28;20025;-73
2021/06/30 03:00:24;;;;;;;3.25;3.05;;;17.80;99.90;;;;;;2090520;28;20044;-73
2021/06/30 03:01:24;;;;;;;3.60;3.30;;;17.80;99.90;;;;;;2088767;28;20029;-72
2021/06/30 03:02:25;;;;;;;3.95;3.50;;;17.80;99.90;;;;;;2088910;28;20116;-74
2021/06/30 03:03:26;;;;;;;3.20;2.90;;;17.70;99.90;;;;;;2088885;28;20079;-73
2021/06/30 03:04:27;;;;;;;5.13;3.38;;;17.70;99.90;;;;;;2088987;28;20028;-74
2021/06/30 03:05:27;;;;;;;4.45;3.40;;;17.70;99.90;;;;;;2089555;28;20399;-73
2021/06/30 03:06:28;;;;;;;4.07;3.40;;;17.70;99.90;;;;;;2089415;28;20112;-74
2021/06/30 03:07:29;;;;;;;3.45;3.15;;;17.70;99.90;;;;;;2088974;28;20060;-74
2021/06/30 03:08:29;;;;;;;3.72;3.15;;;17.70;99.90;;;;;;2088550;28;20090;-73
2021/06/30 03:09:30;;;;;;;4.60;3.40;;;17.70;99.90;;;;;;2088976;28;20033;-74
2021/06/30 03:10:30;;;;;;;3.30;3.00;;;17.70;99.90;;;;;;2089531;28;20060;-74
2021/06/30 03:11:31;;;;;;;4.22;3.20;;;17.70;99.90;;;;;;2089588;28;20039;-73
2021/06/30 03:12:32;;;;;;;3.95;3.40;;;17.70;99.90;;;;;;2089506;28;20488;-73
2021/06/30 03:13:32;;;;;;;4.00;3.30;;;17.70;99.90;;;;;;2088568;28;20064;-73
2021/06/30 03:14:33;;;;;;;4.13;3.15;;;17.70;99.90;;;;;;2088756;28;20036;-74
2021/06/30 03:15:34;;;;;;;5.88;3.40;;;17.70;99.90;;;;;;2088833;28;20025;-74
2021/06/30 03:16:34;;;;;;;3.63;3.33;;;17.70;99.90;;;;;;2088800;28;20530;-74
2021/06/30 03:17:35;;;;;;;4.28;3.40;;;17.70;99.90;;;;;;2089509;28;20032;-74
2021/06/30 03:18:36;;;;;;;3.70;3.30;;;17.70;99.90;;;;;;2089103;28;20026;-73
2021/06/30 03:19:36;;;;;;;4.03;3.63;;;17.70;99.90;;;;;;2090435;28;20028;-74
2021/06/30 03:20:37;;;;;;;6.40;3.55;;;17.70;99.90;;;;;;2089209;28;20031;-74
2021/06/30 03:21:38;;;;;;;5.35;3.80;;;17.70;99.90;;;;;;2088711;28;20025;-74
2021/06/30 03:22:39;;;;;;;3.70;3.40;;;17.70;99.90;;;;;;2088227;28;20031;-73
2021/06/30 03:23:40;;;;;;;4.57;3.90;;;17.60;99.90;;;;;;2097042;28;20064;-74
2021/06/30 03:24:40;;;;;;;3.67;3.35;;;17.70;99.90;;;;;;2089296;28;20029;-74
2021/06/30 03:25:41;;;;;;;4.15;3.65;;;17.70;99.90;;;;;;2089530;28;20092;-75
2021/06/30 03:26:42;;;;;;;4.32;3.80;;;17.70;99.90;;;;;;2089324;28;20040;-73
2021/06/30 03:27:43;;;;;;;4.78;3.42;;;17.70;99.90;;;;;;2089125;28;20033;-74
2021/06/30 03:28:44;;;;;;;5.28;3.47;;;17.70;99.90;;;;;;2089480;28;20033;-74
2021/06/30 03:29:44;;;;;;;3.70;3.38;;;17.70;99.90;;;;;;2090256;28;20100;-75
2021/06/30 03:30:45;;;;;;;4.32;3.50;;;17.70;99.90;;;;;;2089836;28;20036;-74
2021/06/30 03:31:46;;;;;;;5.63;3.55;;;17.70;99.90;;;;;;2089166;28;20037;-74
2021/06/30 03:32:47;;;;;;;3.70;3.38;;;17.70;99.90;;;;;;2097445;28;20024;-74
2021/06/30 03:33:47;;;;;;;4.32;3.58;;;17.70;99.90;;;;;;2089449;28;20068;-73
2021/06/30 03:34:48;;;;;;;4.57;3.70;;;17.70;99.90;;;;;;2089326;28;20060;-72
2021/06/30 03:35:49;;;;;;;4.05;3.67;;;17.70;99.90;;;;;;2089152;28;20021;-73
2021/06/30 03:36:49;;;;;;;4.40;3.40;;;17.70;99.90;;;;;;2089317;28;20032;-72
2021/06/30 03:37:50;;;;;;;5.10;3.60;;;17.70;99.90;;;;;;2089361;28;20110;-72
2021/06/30 03:38:51;;;;;;;5.00;3.72;;;17.70;99.90;;;;;;2088456;28;20392;-73
2021/06/30 03:39:51;;;;;;;4.13;3.70;;;17.70;99.90;;;;;;2089351;28;20039;-72
2021/06/30 03:40:52;;;;;;;6.93;3.92;;;17.70;99.90;;;;;;2089299;28;20047;-72
2021/06/30 03:41:53;;;;;;;4.60;3.60;;;17.70;99.90;;;;;;2089258;28;20033;-73
2021/06/30 03:42:53;;;;;;;5.03;3.70;;;17.70;99.90;;;;;;2089230;28;20480;-72
2021/06/30 03:43:54;;;;;;;6.10;3.83;;;17.70;99.90;;;;;;2089376;28;20669;-73
2021/06/30 03:44:54;;;;;;;4.30;3.85;;;17.70;99.90;;;;;;2089151;28;20029;-72
2021/06/30 03:45:55;;;;;;;6.13;3.90;;;17.70;99.90;;;;;;2088567;28;20032;-72
2021/06/30 03:46:56;;;;;;;4.10;3.70;;;17.60;99.90;;;;;;2088789;28;20067;-72
2021/06/30 03:47:56;;;;;;;4.30;3.90;;;17.60;99.90;;;;;;2089391;28;20118;-72
2021/06/30 03:48:57;;;;;;;5.25;3.88;;;17.60;99.90;;;;;;2089639;28;20063;-72
2021/06/30 03:49:58;;;;;;;4.80;4.03;;;17.60;99.90;;;;;;2088592;28;20546;-73
2021/06/30 03:50:58;;;;;;;3.85;3.55;;;17.60;99.90;;;;;;2089170;28;20021;-72
2021/06/30 03:51:59;;;;;;;5.05;3.60;;;17.60;99.90;;;;;;2089319;28;20025;-72
2021/06/30 03:53:00;;;;;;;4.55;3.90;;;17.60;99.90;;;;;;2088669;28;20434;-73
2021/06/30 03:54:00;;;;;;;4.13;3.70;;;17.60;99.90;;;;;;2088885;28;20039;-73
2021/06/30 03:55:01;;;;;;;5.55;3.90;;;17.60;99.90;;;;;;2089259;28;20021;-73
2021/06/30 03:56:02;;;;;;;5.28;4.03;;;17.60;99.90;;;;;;2088564;28;20056;-73
2021/06/30 03:57:03;;;;;;;4.85;4.20;;;17.60;99.90;;;;;;2088604;28;20373;-74
2021/06/30 03:58:03;;;;;;;6.07;4.00;;;17.70;99.90;;;;;;2096718;28;20028;-73
2021/06/30 03:59:04;;;;;;;6.15;4.05;;;17.70;99.90;;;;;;2088579;28;20439;-73
2021/06/30 04:00:06;;;;;;;5.43;3.95;;;17.70;99.90;;;;;;2088625;28;20082;-72
2021/06/30 04:01:13;;;;;;;5.22;4.03;;;17.60;99.90;;;;;;2088620;28;20103;-73
2021/06/30 04:02:13;;;;;;;4.40;3.78;;;17.60;99.90;;;;;;2088669;28;20071;-72
2021/06/30 04:03:14;;;;;;;4.43;4.00;;;17.60;99.90;;;;;;2088628;28;20556;-72
2021/06/30 04:04:16;;;;;;;4.05;3.42;;;17.50;99.90;;;;;;2089230;28;20036;-73
2021/06/30 04:05:17;;;;;;;5.28;3.85;;;17.50;99.90;;;;;;2089631;28;20469;-73
2021/06/30 04:06:17;;;;;;;5.72;3.90;;;17.50;99.90;;;;;;2088269;28;20036;-73
2021/06/30 04:07:18;;;;;;;4.68;3.80;;;17.60;99.90;;;;;;2088674;28;20443;-73
2021/06/30 04:08:18;;;;;;;5.10;4.03;;;17.60;99.90;;;;;;2089278;28;20025;-72
2021/06/30 04:09:19;;;;;;;6.88;3.60;;;17.60;99.90;;;;;;2087570;28;20139;-73
2021/06/30 04:10:20;;;;;;;5.50;3.75;;;17.50;99.90;;;;;;2088590;28;20057;-73
2021/06/30 04:11:21;;;;;;;6.15;3.92;;;17.50;99.90;;;;;;2088503;28;20036;-73
2021/06/30 04:12:21;;;;;;;4.47;3.60;;;17.50;99.90;;;;;;2088506;28;20175;-73
2021/06/30 04:13:22;;;;;;;5.00;3.90;;;17.50;99.90;;;;;;2089127;28;20041;-73
2021/06/30 04:14:23;;;;;;;4.20;3.80;;;17.50;99.90;;;;;;2089211;28;20021;-73
2021/06/30 04:15:23;;;;;;;4.78;3.90;;;17.50;99.90;;;;;;2080660;28;20033;-73
2021/06/30 04:16:24;;;;;;;5.40;3.90;;;17.50;99.90;;;;;;2080576;28;20489;-74
2021/06/30 04:17:24;;;;;;;4.57;3.90;;;17.50;99.90;;;;;;2089491;28;20017;-73
2021/06/30 04:18:25;;;;;;;4.28;3.88;;;17.50;99.90;;;;;;2088068;28;20017;-73
2021/06/30 04:19:26;;;;;;;4.60;3.80;;;17.50;99.90;;;;;;2089557;28;20699;-73
2021/06/30 04:20:26;;;;;;;6.78;4.70;;;17.50;99.90;;;;;;2088313;28;20021;-73
2021/06/30 04:21:27;;;;;;;4.82;3.85;;;17.50;99.90;;;;;;2088094;28;20017;-72
2021/06/30 04:22:27;;;;;;;7.18;4.07;;;17.60;99.90;;;;;;2088597;28;20148;-72
2021/06/30 04:23:28;;;;;;;5.63;4.10;;;17.60;99.90;;;;;;2089083;28;20116;-72
2021/06/30 04:24:29;;;;;;;6.70;4.22;;;17.50;99.90;;;;;;2089039;28;20040;-72
2021/06/30 04:25:29;;;;;;;9.00;4.30;;;17.50;99.90;;;;;;2089158;28;20029;-73
2021/06/30 04:26:30;;;;;;;5.45;4.32;;;17.50;99.90;;;;;;2089161;28;20033;-73
2021/06/30 04:27:31;;;;;;;5.45;4.13;;;17.50;99.90;;;;;;2089646;28;20029;-73
2021/06/30 04:28:32;;;;;;;4.60;4.20;;;17.50;99.90;;;;;;2088235;28;20037;-73
2021/06/30 04:29:33;;;;;;;5.60;4.13;;;17.50;99.90;;;;;;2087995;28;20064;-73
2021/06/30 04:30:33;;;;;;;4.72;4.20;;;17.40;99.90;;;;;;2089319;28;20087;-73
2021/06/30 04:31:34;;;;;;;4.93;4.40;;;17.40;99.90;;;;;;2089294;28;20132;-73
2021/06/30 04:32:35;;;;;;;7.05;4.35;;;17.40;99.90;;;;;;2089126;28;20045;-73
2021/06/30 04:33:36;;;;;;;6.85;4.45;;;17.40;99.90;;;;;;2088969;28;20025;-74
2021/06/30 04:34:37;;;;;;;6.57;4.40;;;17.40;99.90;;;;;;2088943;28;20118;-73
2021/06/30 04:35:37;;;;;;;4.95;4.05;;;17.30;99.90;;;;;;2088736;28;20037;-73
2021/06/30 04:36:38;;;;;;;5.03;4.30;;;17.30;99.90;;;;;;2089039;28;20024;-74
2021/06/30 04:37:39;;;;;;;5.55;4.15;;;17.30;99.90;;;;;;2088268;28;20486;-74
2021/06/30 04:38:39;;;;;;;6.13;4.97;;;17.30;99.90;;;;;;2087800;28;20822;-73
2021/06/30 04:39:40;;;;;;;5.20;4.75;;;17.30;99.90;;;;;;2088389;28;20029;-73
2021/06/30 04:40:40;;;;;;;5.50;4.65;;;17.30;99.90;;;;;;2088959;28;20035;-73
2021/06/30 04:41:41;;;;;;;5.95;4.72;;;17.30;99.90;;;;;;2088853;28;20040;-74
2021/06/30 04:42:42;;;;;;;5.32;4.68;;;17.30;99.90;;;;;;2088994;28;20158;-73
2021/06/30 04:43:43;;;;;;;4.97;4.50;;;17.30;99.90;;;;;;2088986;28;20140;-74
2021/06/30 04:44:43;;;;;;;5.15;4.10;;;17.30;99.90;;;;;;2089194;28;20049;-73
2021/06/30 04:45:44;;;;;;;7.22;4.88;;;17.30;99.90;;;;;;2089226;28;20376;-74
2021/06/30 04:46:44;;;;;;;5.00;4.32;;;17.30;99.90;;;;;;2088372;28;20062;-73
2021/06/30 04:47:45;;;;;;;6.35;4.47;;;17.30;99.90;;;;;;2088597;28;20052;-76
2021/06/30 04:48:46;;;;;;;5.40;4.00;;;17.30;99.90;;;;;;2088385;28;20025;-74
2021/06/30 04:49:46;;;;;;;6.85;4.30;;;17.30;99.90;;;;;;2090310;28;20037;-73
2021/06/30 04:50:47;;;;;;;7.95;4.38;;;17.20;99.90;;;;;;2088800;28;20044;-73
2021/06/30 04:51:47;;;;;;;6.05;4.70;;;17.20;99.90;;;;;;2088809;28;20495;-73
2021/06/30 04:52:48;;;;;;;5.68;4.50;;;17.20;99.90;;;;;;2088031;28;20086;-74
2021/06/30 04:53:51;;;;;;;6.15;4.28;;;17.20;99.90;;;;;;2088206;28;20128;-74
2021/06/30 04:54:51;;;;;;;4.68;4.25;;;17.20;99.90;;;;;;2089008;28;20642;-73
2021/06/30 04:55:53;;;;;;;5.03;4.40;;;17.20;99.90;;;;;;2089198;28;20045;-73
2021/06/30 04:56:53;;;;;;;4.93;4.35;;;17.20;99.90;;;;;;2088894;28;20483;-74
2021/06/30 04:57:54;;;;;;;6.47;4.40;;;17.20;99.90;;;;;;2089173;28;20033;-74
2021/06/30 04:58:55;;;;;;;5.70;4.55;;;17.10;99.90;;;;;;2088348;28;20052;-73
2021/06/30 04:59:56;;;;;;;4.50;4.10;;;17.20;99.90;;;;;;2088470;28;20067;-75
2021/06/30 05:00:56;;;;;;;5.60;5.03;;;17.20;99.90;;;;;;2089454;28;20064;-74
2021/06/30 05:01:57;;;;;;;5.00;4.50;;;17.20;99.90;;;;;;2089236;28;20064;-74
2021/06/30 05:02:59;;;;;;;5.68;4.80;;;17.20;99.90;;;;;;2088318;28;20029;-73
2021/06/30 05:04:00;;;;;;;9.07;4.60;;;17.20;99.90;;;;;;2088395;28;20091;-73
2021/06/30 05:05:01;;;;;;;9.45;4.90;;;17.20;99.90;;;;;;2096561;28;20514;-74
2021/06/30 05:06:01;;;;;;;6.82;4.88;;;17.20;99.90;;;;;;2089050;28;20036;-75
2021/06/30 05:07:02;;;;;;;5.15;4.60;;;17.20;99.90;;;;;;2088911;28;20047;-72
2021/06/30 05:08:04;;;;;;;6.35;4.80;;;17.20;99.90;;;;;;2089104;28;20031;-73
2021/06/30 05:09:05;;;;;;;6.47;4.82;;;17.20;99.90;;;;;;2079308;28;20099;-72
2021/06/30 05:10:06;;;;;;;7.72;5.13;;;17.20;99.90;;;;;;2080587;28;20092;-72
2021/06/30 05:11:07;;;;;;;8.48;4.88;;;17.20;99.90;;;;;;2096939;28;20610;-72
2021/06/30 05:12:08;;;;;;;5.50;4.93;;;17.20;99.90;;;;;;2088257;28;20071;-71
2021/06/30 05:13:09;;;;;;;5.15;4.65;;;17.20;99.90;;;;;;2088609;28;20056;-74
2021/06/30 05:14:10;;;;;;;6.72;4.60;;;17.20;99.90;;;;;;2087999;28;20411;-72
2021/06/30 05:15:11;;;;;;;7.30;4.57;;;17.20;99.90;;;;;;2088121;28;20072;-73
2021/06/30 05:16:12;;;;;;;5.88;4.50;;;17.20;99.90;;;;;;2088427;28;20111;-72
2021/06/30 05:17:12;;;;;;;6.07;4.68;;;17.20;99.90;;;;;;2088194;28;20041;-72